Time;durP1;ratioP1;P1;durP2;ratioP2;P2;SDS_P1;SDS_P2;PMS_P1;PMS_P2;Temp;Humidity;BMP_temperature;BMP_pressure;BME280_temperature;BME280_humidity;BME280_pressure;Samples;Min_cycle;Max_cycle;Signal;HPM_P1;HPM_P2
2023/08/15 00:02:02;;;;;;;9.55;4.57;;;20.70;99.90;;;;;;5115260;28;20202;-59
2023/08/15 00:04:31;;;;;;;13.68;4.55;;;20.70;99.90;;;;;;5128699;27;20191;-59
2023/08/15 00:06:59;;;;;;;6.53;4.50;;;20.70;99.90;;;;;;5115604;28;20267;-60
2023/08/15 00:09:27;;;;;;;10.43;3.80;;;20.60;99.90;;;;;;5128324;27;20249;-59
2023/08/15 00:11:55;;;;;;;9.90;4.63;;;20.60;99.90;;;;;;5119653;27;20282;-59
2023/08/15 00:14:23;;;;;;;17.13;4.55;;;20.60;99.90;;;;;;5102332;27;20226;-60
2023/08/15 00:16:51;;;;;;;11.63;4.43;;;20.70;99.90;;;;;;5128259;27;20202;-59
2023/08/15 00:19:20;;;;;;;17.98;5.28;;;20.60;99.90;;;;;;5127086;27;20194;-59
2023/08/15 00:21:48;;;;;;;10.48;4.90;;;20.60;99.90;;;;;;5120086;27;20227;-60
2023/08/15 00:24:16;;;;;;;16.05;4.60;;;20.60;99.90;;;;;;5131613;27;20245;-58
2023/08/15 00:26:44;;;;;;;14.25;4.63;;;20.60;99.90;;;;;;5107582;28;20231;-60
2023/08/15 00:29:12;;;;;;;12.23;5.00;;;20.60;99.90;;;;;;5112922;28;20286;-61
2023/08/15 00:31:39;;;;;;;7.75;4.30;;;20.60;99.90;;;;;;5111804;27;20282;-61
2023/08/15 00:34:07;;;;;;;9.98;4.75;;;20.60;99.90;;;;;;5132197;27;20257;-61
2023/08/15 00:36:37;;;;;;;11.45;4.82;;;20.60;99.90;;;;;;5108528;28;20733;-61
2023/08/15 00:39:05;;;;;;;6.50;4.78;;;20.60;99.90;;;;;;5124506;27;20231;-61
2023/08/15 00:41:32;;;;;;;6.95;4.57;;;20.60;99.90;;;;;;5121914;27;20641;-61
2023/08/15 00:44:00;;;;;;;11.30;4.82;;;20.60;99.90;;;;;;5132056;27;20222;-60
2023/08/15 00:46:28;;;;;;;7.70;4.95;;;20.60;99.90;;;;;;5119218;27;20237;-61
2023/08/15 00:48:56;;;;;;;12.68;4.63;;;20.60;99.90;;;;;;5126909;27;20367;-61
2023/08/15 00:51:24;;;;;;;8.60;4.43;;;20.60;99.90;;;;;;5127112;27;20289;-61
2023/08/15 00:53:53;;;;;;;5.38;4.22;;;20.60;99.90;;;;;;5118137;27;20214;-61
2023/08/15 00:56:21;;;;;;;12.55;4.43;;;20.60;99.90;;;;;;5116482;27;20226;-61
2023/08/15 00:58:49;;;;;;;9.48;4.70;;;20.60;99.90;;;;;;5114819;28;20328;-61
2023/08/15 01:01:17;;;;;;;16.75;4.95;;;20.50;99.90;;;;;;5125938;27;20207;-61
2023/08/15 01:03:46;;;;;;;7.30;4.95;;;20.50;99.90;;;;;;5118929;27;20229;-61
2023/08/15 01:06:14;;;;;;;11.45;4.88;;;20.50;99.90;;;;;;5121220;27;20202;-61
2023/08/15 01:08:42;;;;;;;13.23;5.05;;;20.50;99.90;;;;;;5128563;27;20653;-61
2023/08/15 01:11:11;;;;;;;9.90;5.13;;;20.50;99.90;;;;;;5124725;27;20700;-61
2023/08/15 01:13:42;;;;;;;6.45;4.90;;;20.50;99.90;;;;;;5120582;27;20267;-61
2023/08/15 01:16:14;;;;;;;8.00;5.32;;;20.50;99.90;;;;;;5129887;27;20297;-61
2023/08/15 01:18:43;;;;;;;13.80;6.03;;;20.50;99.90;;;;;;5120786;27;20221;-61
2023/08/15 01:21:13;;;;;;;15.77;6.50;;;20.50;99.90;;;;;;5124137;27;20231;-61
2023/08/15 01:23:43;;;;;;;7.72;4.88;;;20.50;99.90;;;;;;5129252;27;20198;-61
2023/08/15 01:26:11;;;;;;;10.55;5.88;;;20.50;99.90;;;;;;5117465;27;20199;-61
2023/08/15 01:28:39;;;;;;;11.48;5.65;;;20.50;99.90;;;;;;5128663;27;20253;-61
2023/08/15 01:31:09;;;;;;;10.20;5.88;;;20.50;99.90;;;;;;5123967;27;20733;-61
2023/08/15 01:33:38;;;;;;;10.85;5.65;;;20.50;99.90;;;;;;5120719;27;20210;-61
2023/08/15 01:36:09;;;;;;;12.98;5.70;;;20.50;99.90;;;;;;5130762;27;20215;-61
2023/08/15 01:38:40;;;;;;;15.30;6.07;;;20.50;99.90;;;;;;5111073;27;20662;-61
2023/08/15 01:41:10;;;;;;;17.42;6.25;;;20.40;99.90;;;;;;5113504;28;20286;-60
2023/08/15 01:43:39;;;;;;;9.18;5.72;;;20.50;99.90;;;;;;5113929;28;20242;-60
2023/08/15 01:46:07;;;;;;;8.38;5.60;;;20.40;99.90;;;;;;5130259;27;20198;-60
2023/08/15 01:48:39;;;;;;;15.13;5.97;;;20.40;99.90;;;;;;5119198;27;20229;-60
2023/08/15 01:51:07;;;;;;;9.77;5.93;;;20.30;99.90;;;;;;5124292;27;20293;-60
2023/08/15 01:53:35;;;;;;;11.50;5.72;;;20.30;99.90;;;;;;5127515;27;20741;-60
2023/08/15 01:56:02;;;;;;;13.50;5.57;;;20.30;99.90;;;;;;5116523;27;20321;-60
2023/08/15 01:58:32;;;;;;;11.63;5.10;;;20.30;99.90;;;;;;5129550;27;20297;-61
2023/08/15 02:01:01;;;;;;;9.25;6.32;;;20.30;99.90;;;;;;5121713;27;20251;-61
2023/08/15 02:03:29;;;;;;;8.38;5.60;;;20.30;99.90;;;;;;5121081;27;20234;-61
2023/08/15 02:05:57;;;;;;;12.18;6.20;;;20.30;99.90;;;;;;5117449;27;20191;-60
2023/08/15 02:08:25;;;;;;;10.38;5.80;;;20.30;99.90;;;;;;5129699;27;20307;-60
2023/08/15 02:10:53;;;;;;;8.20;6.00;;;20.20;99.90;;;;;;5121384;27;20217;-60
2023/08/15 02:13:21;;;;;;;13.15;6.18;;;20.20;99.90;;;;;;5121878;27;20654;-60
2023/08/15 02:15:51;;;;;;;14.75;6.28;;;20.20;99.90;;;;;;5128764;27;20219;-60
2023/08/15 02:18:19;;;;;;;8.43;5.78;;;20.20;99.90;;;;;;5116587;27;20607;-60
2023/08/15 02:20:47;;;;;;;15.88;5.60;;;20.20;99.90;;;;;;5125800;27;20290;-60
2023/08/15 02:23:15;;;;;;;13.00;6.18;;;20.20;99.90;;;;;;5124375;27;20203;-60
2023/08/15 02:25:43;;;;;;;12.48;5.90;;;20.20;99.90;;;;;;5118377;27;20195;-61
2023/08/15 02:28:11;;;;;;;8.63;5.85;;;20.20;99.90;;;;;;5129845;27;20271;-60
2023/08/15 02:30:38;;;;;;;12.00;6.15;;;20.20;99.90;;;;;;5118915;27;20225;-60
2023/08/15 02:33:08;;;;;;;15.50;6.75;;;20.20;99.90;;;;;;5123571;27;20231;-60
2023/08/15 02:35:38;;;;;;;15.57;6.85;;;20.20;99.90;;;;;;5126389;27;20199;-59
2023/08/15 02:38:06;;;;;;;13.05;6.38;;;20.20;99.90;;;;;;5116324;27;20706;-61
2023/08/15 02:40:34;;;;;;;12.45;7.38;;;20.20;99.90;;;;;;5127868;27;20202;-60
2023/08/15 02:43:02;;;;;;;14.75;6.75;;;20.10;99.90;;;;;;5121987;27;20222;-60
2023/08/15 02:45:30;;;;;;;11.90;7.13;;;20.10;99.90;;;;;;5119607;27;20253;-60
2023/08/15 02:47:58;;;;;;;11.55;7.32;;;20.10;99.90;;;;;;5129281;27;20230;-60
2023/08/15 02:50:28;;;;;;;9.07;6.57;;;20.10;99.90;;;;;;5116960;27;20195;-60
2023/08/15 02:52:56;;;;;;;12.75;6.70;;;20.20;99.90;;;;;;5124940;27;20218;-61
2023/08/15 02:55:24;;;;;;;13.70;7.03;;;20.20;99.90;;;;;;5124531;27;20194;-61
2023/08/15 02:57:51;;;;;;;11.30;7.03;;;20.20;99.90;;;;;;5116634;27;20273;-61
2023/08/15 03:00:19;;;;;;;11.45;7.10;;;20.20;99.90;;;;;;5129111;27;20231;-60
2023/08/15 03:02:47;;;;;;;11.80;6.88;;;20.20;99.90;;;;;;5119620;27;20669;-60
2023/08/15 03:05:15;;;;;;;10.85;6.43;;;20.20;99.90;;;;;;5121478;27;20223;-60
2023/08/15 03:07:44;;;;;;;10.45;7.30;;;20.30;99.90;;;;;;5112328;28;20225;-61
2023/08/15 03:10:12;;;;;;;13.90;7.38;;;20.30;99.90;;;;;;5129077;27;20620;-60
2023/08/15 03:12:40;;;;;;;7.68;6.97;;;20.30;99.90;;;;;;5118523;27;20646;-61
2023/08/15 03:15:08;;;;;;;9.70;6.55;;;20.30;99.90;;;;;;5122161;27;20205;-61
2023/08/15 03:17:36;;;;;;;8.00;7.10;;;20.30;99.90;;;;;;5126352;27;20233;-61
2023/08/15 03:20:06;;;;;;;12.82;9.13;;;20.30;99.90;;;;;;5115330;27;20210;-61
2023/08/15 03:22:34;;;;;;;18.55;9.55;;;20.30;99.90;;;;;;5127397;27;20191;-61
2023/08/15 03:25:03;;;;;;;16.65;9.30;;;20.30;99.90;;;;;;5121009;27;20277;-60
2023/08/15 03:27:31;;;;;;;14.10;10.45;;;20.40;99.90;;;;;;5119144;27;20243;-61
2023/08/15 03:29:59;;;;;;;18.63;10.23;;;20.40;99.90;;;;;;5129009;27;20278;-61
2023/08/15 03:32:27;;;;;;;15.77;10.27;;;20.40;99.90;;;;;;5116507;27;20301;-60
2023/08/15 03:34:56;;;;;;;18.88;9.48;;;20.40;99.90;;;;;;5123851;27;20282;-60
2023/08/15 03:37:23;;;;;;;14.65;10.07;;;20.40;99.90;;;;;;5124297;28;20226;-61
2023/08/15 03:39:51;;;;;;;25.40;11.80;;;20.30;99.90;;;;;;5120156;28;20266;-60
2023/08/15 03:42:21;;;;;;;23.83;10.82;;;20.30;99.90;;;;;;5135905;27;20762;-60
2023/08/15 03:44:49;;;;;;;22.60;10.52;;;20.30;99.90;;;;;;5125885;27;20227;-60
2023/08/15 03:49:51;;;;;;;17.98;10.48;;;20.30;99.90;;;;;;5076424;28;20212;-58
2023/08/15 03:52:19;;;;;;;14.55;9.68;;;20.30;99.90;;;;;;5074909;28;20251;-58
2023/08/15 03:54:47;;;;;;;11.82;9.07;;;20.30;99.90;;;;;;5064438;28;20200;-58
2023/08/15 03:57:15;;;;;;;16.27;10.07;;;20.30;99.90;;;;;;5067450;28;20322;-58
2023/08/15 03:59:44;;;;;;;21.75;11.38;;;20.30;99.90;;;;;;5072243;28;20290;-57
2023/08/15 04:02:12;;;;;;;16.08;10.88;;;20.30;99.90;;;;;;5061346;28;20240;-58
2023/08/15 04:04:40;;;;;;;21.17;9.98;;;20.30;99.90;;;;;;5073254;28;20205;-58
2023/08/15 04:07:08;;;;;;;19.30;10.65;;;20.40;99.90;;;;;;5067631;28;20198;-58
2023/08/15 04:09:36;;;;;;;19.98;10.68;;;20.30;99.90;;;;;;5071605;28;20304;-58
2023/08/15 04:12:04;;;;;;;16.25;12.10;;;20.30;99.90;;;;;;5066722;28;20842;-57
2023/08/15 04:14:32;;;;;;;23.58;12.30;;;20.30;99.90;;;;;;5070716;28;20659;-58
2023/08/15 04:17:01;;;;;;;17.63;13.13;;;20.30;99.90;;;;;;5068808;28;20671;-58
2023/08/15 04:19:29;;;;;;;21.40;13.10;;;20.30;99.90;;;;;;5070294;28;20303;-58
2023/08/15 04:21:57;;;;;;;23.65;14.20;;;20.30;99.90;;;;;;5061247;28;20292;-57
2023/08/15 04:24:26;;;;;;;22.70;14.05;;;20.30;99.90;;;;;;5073641;28;20193;-58
2023/08/15 04:26:53;;;;;;;15.85;10.63;;;20.30;99.90;;;;;;5071849;28;20282;-59
2023/08/15 04:29:21;;;;;;;18.90;12.25;;;20.40;99.90;;;;;;5075068;28;20229;-56
2023/08/15 04:31:49;;;;;;;24.08;13.25;;;20.40;99.90;;;;;;5075983;28;20303;-56
2023/08/15 04:34:18;;;;;;;21.27;13.15;;;20.40;99.90;;;;;;5070676;28;20212;-57
2023/08/15 04:36:48;;;;;;;21.10;13.30;;;20.40;99.90;;;;;;5063911;28;20201;-56
2023/08/15 04:39:19;;;;;;;20.52;13.82;;;20.40;99.90;;;;;;5065508;28;20613;-57
2023/08/15 04:41:47;;;;;;;19.45;13.40;;;20.50;99.90;;;;;;5070678;28;20293;-57
2023/08/15 04:44:15;;;;;;;23.70;13.48;;;20.50;99.90;;;;;;5068944;28;20732;-56
2023/08/15 04:46:42;;;;;;;13.15;8.40;;;20.50;99.90;;;;;;5070572;28;20677;-56
2023/08/15 04:49:10;;;;;;;13.70;7.38;;;20.50;99.90;;;;;;5067374;28;20267;-56
2023/08/15 04:51:39;;;;;;;12.30;6.53;;;20.50;99.90;;;;;;5059787;28;20232;-57
2023/08/15 04:54:07;;;;;;;13.25;6.15;;;20.50;99.90;;;;;;5070839;28;20283;-57
2023/08/15 04:56:35;;;;;;;12.77;6.00;;;20.50;99.90;;;;;;5059188;28;20197;-55
2023/08/15 04:59:03;;;;;;;13.18;6.13;;;20.50;99.90;;;;;;5064836;28;20225;-56
2023/08/15 05:01:31;;;;;;;10.23;5.20;;;20.50;99.90;;;;;;5067189;28;20247;-57
2023/08/15 05:03:59;;;;;;;8.45;5.03;;;20.50;99.90;;;;;;5057428;28;20209;-56
2023/08/15 05:06:27;;;;;;;8.65;4.90;;;20.50;99.90;;;;;;5061488;28;20250;-56
2023/08/15 05:08:56;;;;;;;7.15;5.22;;;20.50;99.90;;;;;;5065980;28;20223;-56
2023/08/15 05:11:24;;;;;;;4.97;4.55;;;20.60;99.90;;;;;;5065992;28;20254;-56
2023/08/15 05:13:52;;;;;;;8.27;5.55;;;20.60;99.90;;;;;;5058039;28;20641;-56
2023/08/15 05:16:20;;;;;;;7.50;4.90;;;20.60;99.90;;;;;;5070196;28;20291;-56
2023/08/15 05:18:48;;;;;;;10.75;4.65;;;20.50;99.90;;;;;;5060929;28;20259;-57
2023/08/15 05:21:15;;;;;;;8.57;5.32;;;20.60;99.90;;;;;;5062867;28;20233;-57
2023/08/15 05:23:43;;;;;;;12.52;4.97;;;20.60;99.90;;;;;;5068395;28;20699;-57
2023/08/15 05:26:13;;;;;;;7.47;4.85;;;20.50;99.90;;;;;;5056494;28;20640;-57
2023/08/15 05:28:40;;;;;;;7.70;5.60;;;20.50;99.90;;;;;;5067480;28;20656;-57
2023/08/15 05:31:10;;;;;;;6.45;5.18;;;20.50;99.90;;;;;;5063693;28;20211;-59
2023/08/15 05:33:38;;;;;;;8.98;5.63;;;20.50;99.90;;;;;;5059869;28;20641;-59
2023/08/15 05:36:06;;;;;;;6.15;5.10;;;20.50;99.90;;;;;;5069517;28;20209;-59
2023/08/15 05:38:36;;;;;;;14.35;5.78;;;20.50;99.90;;;;;;5058426;28;20248;-59
2023/08/15 05:41:04;;;;;;;8.93;5.18;;;20.40;99.90;;;;;;5066526;28;20672;-59
2023/08/15 05:43:33;;;;;;;8.32;5.10;;;20.40;99.90;;;;;;5062673;28;20287;-59
2023/08/15 05:46:01;;;;;;;5.70;5.18;;;20.40;99.90;;;;;;5061981;28;20250;-59
2023/08/15 05:48:30;;;;;;;10.82;6.10;;;20.50;99.90;;;;;;5069593;28;20264;-58
2023/08/15 05:50:57;;;;;;;7.55;5.60;;;20.50;99.90;;;;;;5067768;28;20723;-59
2023/08/15 05:53:25;;;;;;;7.03;5.95;;;20.50;99.90;;;;;;5060753;28;20233;-59
2023/08/15 05:55:53;;;;;;;8.85;6.18;;;20.60;99.90;;;;;;5068470;28;20288;-59
2023/08/15 05:58:21;;;;;;;9.82;6.28;;;20.60;99.90;;;;;;5055756;28;20303;-59
2023/08/15 06:00:52;;;;;;;8.38;6.50;;;20.60;99.90;;;;;;5061049;28;20279;-59
2023/08/15 06:03:20;;;;;;;10.02;5.38;;;20.70;99.90;;;;;;5066783;28;20207;-59
2023/08/15 06:06:08;;;;;;;7.05;5.78;;;20.70;99.90;;;;;;5066655;28;20209;-59
2023/08/15 06:08:35;;;;;;;12.18;6.50;;;20.80;99.90;;;;;;5058313;28;20300;-59
2023/08/15 06:11:03;;;;;;;8.05;6.10;;;20.80;99.90;;;;;;5063469;28;20621;-59
2023/08/15 06:13:31;;;;;;;13.48;6.43;;;20.80;99.90;;;;;;5065184;28;20650;-59
2023/08/15 06:16:00;;;;;;;9.50;6.75;;;20.80;99.90;;;;;;5068590;28;20750;-59
2023/08/15 06:18:28;;;;;;;8.05;6.30;;;20.80;99.90;;;;;;5056796;28;20274;-59
2023/08/15 06:20:56;;;;;;;11.40;6.97;;;20.90;99.90;;;;;;5064271;28;20736;-59
2023/08/15 06:23:24;;;;;;;12.18;6.78;;;20.90;99.90;;;;;;5064715;28;20201;-59
2023/08/15 06:25:52;;;;;;;9.02;7.63;;;21.00;99.90;;;;;;5056307;28;20205;-59
2023/08/15 06:28:21;;;;;;;9.32;6.95;;;21.00;99.90;;;;;;5068959;28;20308;-60
2023/08/15 06:30:49;;;;;;;9.48;7.32;;;21.00;99.90;;;;;;5056251;28;20232;-59
2023/08/15 06:33:18;;;;;;;12.63;7.68;;;21.00;99.90;;;;;;5061258;28;20200;-59
2023/08/15 06:35:46;;;;;;;10.38;7.68;;;21.10;99.90;;;;;;5067111;28;20196;-60
2023/08/15 06:38:14;;;;;;;14.85;8.63;;;21.10;99.90;;;;;;5055615;28;20231;-59
2023/08/15 06:40:42;;;;;;;10.48;7.75;;;21.20;99.90;;;;;;5065651;28;20202;-60
2023/08/15 06:43:10;;;;;;;10.05;7.00;;;21.20;99.90;;;;;;5062031;28;20208;-59
2023/08/15 06:45:38;;;;;;;9.43;7.15;;;21.30;99.90;;;;;;5057600;28;20641;-59
2023/08/15 06:48:06;;;;;;;10.68;6.93;;;21.30;99.90;;;;;;5068458;28;20633;-60
2023/08/15 06:50:35;;;;;;;7.15;6.30;;;21.40;99.90;;;;;;5059308;28;20197;-59
2023/08/15 06:53:04;;;;;;;7.63;6.22;;;21.40;99.90;;;;;;5061386;28;20209;-59
2023/08/15 06:55:31;;;;;;;8.35;5.88;;;21.50;99.90;;;;;;5057232;28;20216;-59
2023/08/15 06:58:01;;;;;;;8.27;7.40;;;21.50;99.90;;;;;;5058370;28;20309;-60
2023/08/15 07:00:29;;;;;;;7.20;4.95;;;21.60;99.90;;;;;;5063546;28;20628;-59
2023/08/15 07:02:57;;;;;;;9.10;6.10;;;21.70;99.90;;;;;;5060320;28;20192;-60
2023/08/15 07:05:25;;;;;;;8.52;5.88;;;21.70;99.90;;;;;;5067308;28;20242;-60
2023/08/15 07:07:54;;;;;;;11.63;5.45;;;21.70;99.90;;;;;;5054992;28;20264;-60
2023/08/15 07:10:22;;;;;;;5.35;4.75;;;21.80;99.90;;;;;;5051549;28;20205;-59
2023/08/15 07:12:50;;;;;;;8.15;5.43;;;21.90;99.90;;;;;;5059365;28;20232;-59
2023/08/15 07:15:18;;;;;;;6.05;5.45;;;21.90;99.90;;;;;;5059963;28;20236;-59
2023/08/15 07:17:46;;;;;;;6.43;5.25;;;21.90;99.90;;;;;;5067023;28;20743;-59
2023/08/15 07:20:15;;;;;;;5.07;4.53;;;21.90;99.90;;;;;;5055273;28;20274;-59
2023/08/15 07:22:43;;;;;;;6.93;4.47;;;21.90;99.90;;;;;;5065416;28;20197;-59
2023/08/15 07:25:13;;;;;;;6.50;4.05;;;22.00;99.90;;;;;;5061439;28;20209;-60
2023/08/15 07:27:40;;;;;;;5.18;4.20;;;22.00;99.90;;;;;;5057515;28;20296;-60
2023/08/15 07:30:11;;;;;;;9.75;4.60;;;22.00;99.90;;;;;;5068060;28;20631;-59
2023/08/15 07:32:39;;;;;;;6.65;4.07;;;22.10;99.90;;;;;;5053343;28;20284;-59
2023/08/15 07:35:07;;;;;;;4.70;3.70;;;22.10;99.90;;;;;;5051393;28;20202;-60
2023/08/15 07:37:35;;;;;;;7.68;4.28;;;22.20;99.90;;;;;;5063628;28;20224;-60
2023/08/15 07:40:09;;;;;;;8.38;4.88;;;22.30;99.90;;;;;;5053732;28;20225;-60
2023/08/15 07:42:38;;;;;;;5.43;3.80;;;22.30;99.90;;;;;;5070553;28;20299;-60
2023/08/15 07:45:07;;;;;;;5.68;4.40;;;22.40;99.90;;;;;;5061895;28;20288;-60
2023/08/15 07:47:38;;;;;;;5.53;3.78;;;22.40;99.90;;;;;;5065091;28;20243;-60
2023/08/15 07:50:15;;;;;;;5.32;3.20;;;22.50;99.90;;;;;;5055015;28;20756;-60
2023/08/15 07:52:43;;;;;;;5.28;2.83;;;22.60;99.90;;;;;;5063553;28;20197;-60
2023/08/15 07:55:11;;;;;;;3.80;3.13;;;22.60;99.90;;;;;;5061239;28;20666;-60
2023/08/15 07:57:40;;;;;;;5.18;3.30;;;22.70;99.90;;;;;;5057524;28;20284;-59
2023/08/15 08:00:09;;;;;;;5.82;3.22;;;22.80;99.90;;;;;;5067194;28;20220;-60
2023/08/15 08:02:37;;;;;;;3.28;3.08;;;22.90;99.90;;;;;;5056906;28;20954;-60
2023/08/15 08:05:06;;;;;;;4.15;3.08;;;23.00;99.90;;;;;;5067342;28;20200;-60
2023/08/15 08:07:35;;;;;;;6.38;2.97;;;23.00;99.90;;;;;;5058054;28;20206;-60
2023/08/15 08:10:03;;;;;;;3.47;2.80;;;23.00;99.90;;;;;;5068256;28;20224;-60
2023/08/15 08:12:31;;;;;;;3.88;3.08;;;23.00;99.90;;;;;;5055797;28;20205;-60
2023/08/15 08:15:00;;;;;;;3.08;2.88;;;23.00;99.90;;;;;;5062158;28;20700;-60
2023/08/15 08:17:28;;;;;;;3.55;2.75;;;23.10;99.90;;;;;;5063704;28;20236;-60
2023/08/15 08:19:56;;;;;;;5.60;2.83;;;23.20;99.90;;;;;;5054589;28;20765;-60
2023/08/15 08:22:24;;;;;;;4.03;2.72;;;23.30;99.90;;;;;;5054723;28;20581;-60
2023/08/15 08:24:53;;;;;;;3.72;2.72;;;23.30;99.90;;;;;;5063292;28;20216;-60
2023/08/15 08:27:21;;;;;;;5.43;2.70;;;23.50;99.90;;;;;;5066022;28;20236;-60
2023/08/15 08:29:49;;;;;;;2.63;2.40;;;23.50;99.90;;;;;;5059148;28;20212;-60
2023/08/15 08:32:19;;;;;;;6.35;2.60;;;23.60;99.90;;;;;;5071383;28;20608;-61
2023/08/15 08:34:47;;;;;;;2.95;2.75;;;23.70;99.90;;;;;;5061319;28;20204;-60
2023/08/15 08:37:15;;;;;;;4.38;2.38;;;23.80;99.90;;;;;;5065767;28;20283;-60
2023/08/15 08:39:43;;;;;;;3.55;2.20;;;24.00;99.90;;;;;;5070013;28;20355;-60
2023/08/15 08:42:11;;;;;;;2.83;2.13;;;24.10;99.90;;;;;;5070709;28;20253;-60
2023/08/15 08:44:39;;;;;;;6.32;2.70;;;24.20;99.90;;;;;;5071417;28;20236;-60
2023/08/15 08:47:06;;;;;;;2.38;2.17;;;24.20;99.90;;;;;;5065796;28;20235;-61
2023/08/15 08:49:36;;;;;;;3.45;2.10;;;24.20;99.90;;;;;;5067630;28;20256;-61
2023/08/15 08:52:04;;;;;;;2.08;1.88;;;24.20;99.90;;;;;;5066245;28;20219;-60
2023/08/15 08:54:32;;;;;;;2.33;2.13;;;24.30;99.90;;;;;;5071867;28;20282;-60
2023/08/15 08:57:20;;;;;;;3.35;2.20;;;24.40;99.90;;;;;;5069187;28;20587;-60
2023/08/15 08:59:48;;;;;;;3.92;1.85;;;24.50;99.90;;;;;;5064253;28;20213;-60
2023/08/15 09:02:19;;;;;;;2.00;1.90;;;24.70;99.90;;;;;;5057297;28;20969;-59
2023/08/15 09:04:49;;;;;;;5.30;2.10;;;24.80;99.90;;;;;;5069128;28;20205;-59
2023/08/15 09:07:17;;;;;;;2.22;2.03;;;24.90;99.90;;;;;;5062232;28;20206;-60
2023/08/15 09:09:44;;;;;;;5.88;1.98;;;25.00;99.90;;;;;;5062852;28;20239;-59
2023/08/15 09:12:31;;;;;;;3.03;2.10;;;25.10;99.90;;;;;;5070434;28;20247;-60
2023/08/15 09:14:59;;;;;;;3.67;2.00;;;25.30;99.90;;;;;;5056600;28;20251;-60
2023/08/15 09:17:27;;;;;;;3.90;2.42;;;25.50;99.90;;;;;;5065919;28;20204;-61
2023/08/15 09:19:57;;;;;;;2.20;2.10;;;25.70;99.90;;;;;;5064961;28;20282;-60
2023/08/15 09:22:25;;;;;;;6.65;2.30;;;25.80;99.90;;;;;;5068173;28;20193;-60
2023/08/15 09:24:53;;;;;;;2.08;1.98;;;26.00;99.90;;;;;;5061256;28;20644;-60
2023/08/15 09:27:21;;;;;;;8.02;2.53;;;26.20;99.90;;;;;;5061996;28;20288;-62
2023/08/15 09:29:50;;;;;;;4.35;1.85;;;26.40;99.90;;;;;;5063954;28;20195;-60
2023/08/15 09:32:18;;;;;;;2.25;2.15;;;26.50;99.90;;;;;;5064074;28;20247;-60
2023/08/15 09:34:45;;;;;;;1.90;1.85;;;26.70;99.90;;;;;;5063969;28;20556;-60
2023/08/15 09:37:15;;;;;;;2.40;2.20;;;26.90;99.90;;;;;;5062768;28;20201;-60
2023/08/15 09:39:42;;;;;;;3.25;1.77;;;27.00;99.90;;;;;;5061939;28;20317;-60
2023/08/15 09:42:10;;;;;;;1.73;1.65;;;27.10;99.90;;;;;;5069386;28;20641;-60
2023/08/15 09:44:40;;;;;;;2.03;1.90;;;27.20;99.90;;;;;;5058454;28;20287;-60
2023/08/15 09:47:08;;;;;;;3.38;1.95;;;27.30;99.90;;;;;;5063328;28;20292;-61
2023/08/15 09:49:36;;;;;;;4.13;1.98;;;27.40;99.90;;;;;;5066588;28;20232;-60
2023/08/15 09:52:05;;;;;;;3.22;1.65;;;27.60;99.90;;;;;;5064947;28;20232;-60
2023/08/15 09:54:34;;;;;;;2.53;1.90;;;27.70;99.90;;;;;;5057646;28;20208;-63
2023/08/15 09:57:03;;;;;;;5.07;2.00;;;27.90;99.90;;;;;;5055920;28;20255;-60
2023/08/15 09:59:30;;;;;;;2.75;1.90;;;28.00;99.90;;;;;;5062741;28;20311;-60
2023/08/15 10:01:58;;;;;;;3.50;2.08;;;27.90;99.90;;;;;;5063404;28;20198;-60
2023/08/15 10:04:26;;;;;;;7.53;2.03;;;28.10;99.90;;;;;;5058254;28;20201;-60
2023/08/15 10:06:54;;;;;;;3.30;2.13;;;28.30;99.90;;;;;;5060566;28;20571;-60
2023/08/15 10:09:24;;;;;;;2.25;2.10;;;28.50;99.90;;;;;;5064570;28;20303;-60
2023/08/15 10:11:53;;;;;;;2.80;2.58;;;28.70;99.90;;;;;;5065385;28;20230;-60
2023/08/15 10:14:21;;;;;;;2.03;1.80;;;28.80;99.90;;;;;;5058428;28;20284;-60
2023/08/15 10:16:49;;;;;;;2.97;2.22;;;28.70;99.90;;;;;;5067239;28;20229;-62
2023/08/15 10:19:18;;;;;;;1.67;1.58;;;28.50;99.90;;;;;;5068971;28;20224;-60
2023/08/15 10:21:50;;;;;;;3.42;2.05;;;28.30;99.90;;;;;;5063266;28;20921;-60
2023/08/15 10:24:18;;;;;;;4.95;2.28;;;28.10;99.90;;;;;;5069033;28;20205;-60
2023/08/15 10:26:46;;;;;;;6.15;2.20;;;27.80;99.90;;;;;;5066831;28;20297;-60
2023/08/15 10:29:15;;;;;;;2.58;1.92;;;27.60;99.90;;;;;;5065680;28;20254;-60
2023/08/15 10:31:44;;;;;;;2.30;1.90;;;27.30;99.90;;;;;;5060028;28;20262;-60
2023/08/15 10:34:12;;;;;;;2.50;1.85;;;27.10;99.90;;;;;;5069697;28;20235;-60
2023/08/15 10:36:41;;;;;;;2.05;1.92;;;26.90;99.90;;;;;;5058518;28;20225;-60
2023/08/15 10:39:09;;;;;;;5.18;1.95;;;26.80;99.90;;;;;;5060172;28;20248;-60
2023/08/15 10:41:37;;;;;;;4.80;1.77;;;26.60;99.90;;;;;;5056463;28;20233;-62
2023/08/15 10:44:06;;;;;;;3.80;1.70;;;26.60;99.90;;;;;;5067634;28;20292;-60
2023/08/15 10:46:36;;;;;;;1.98;1.75;;;26.50;99.90;;;;;;5054839;28;20251;-60
2023/08/15 10:49:07;;;;;;;1.77;1.58;;;26.40;99.90;;;;;;5059303;28;20244;-61
2023/08/15 10:51:35;;;;;;;3.50;1.88;;;26.20;99.90;;;;;;5056865;28;20231;-60
2023/08/15 10:54:06;;;;;;;5.68;2.05;;;26.10;99.90;;;;;;5055714;28;20205;-61
2023/08/15 10:56:34;;;;;;;2.88;1.95;;;25.90;99.90;;;;;;5066196;28;20233;-61
2023/08/15 10:59:06;;;;;;;10.65;3.72;;;25.80;99.90;;;;;;5059491;28;20251;-60
2023/08/15 11:01:35;;;;;;;15.48;3.55;;;25.70;99.90;;;;;;5066380;28;20273;-60
2023/08/15 11:04:03;;;;;;;11.10;3.33;;;25.50;99.90;;;;;;5060700;28;20865;-60
2023/08/15 11:06:31;;;;;;;14.88;3.30;;;25.30;99.90;;;;;;5064180;28;20281;-61
2023/08/15 11:08:59;;;;;;;11.85;3.42;;;25.00;99.90;;;;;;5059885;28;20253;-60
2023/08/15 11:11:27;;;;;;;8.25;3.22;;;24.80;99.90;;;;;;5064230;28;20260;-60
2023/08/15 11:13:55;;;;;;;7.93;3.35;;;24.60;99.90;;;;;;5055240;28;20676;-60
2023/08/15 11:16:24;;;;;;;11.32;3.40;;;24.40;99.90;;;;;;5055048;28;20664;-60
2023/08/15 11:18:53;;;;;;;10.20;3.67;;;24.20;99.90;;;;;;5071856;28;20273;-60
2023/08/15 11:21:21;;;;;;;10.00;4.07;;;24.10;99.90;;;;;;5059868;28;20253;-60
2023/08/15 11:23:54;;;;;;;7.20;2.97;;;24.00;99.90;;;;;;5061217;28;20960;-60
2023/08/15 11:26:23;;;;;;;5.88;3.35;;;24.10;99.90;;;;;;5054456;28;20200;-60
2023/08/15 11:28:51;;;;;;;6.35;3.35;;;24.30;99.90;;;;;;5063459;28;21011;-60
2023/08/15 11:31:19;;;;;;;7.68;3.58;;;24.70;99.90;;;;;;5062904;28;20201;-61
2023/08/15 11:33:51;;;;;;;8.30;3.53;;;24.70;99.90;;;;;;5055833;28;20198;-61
2023/08/15 11:36:21;;;;;;;3.28;2.97;;;24.60;99.90;;;;;;5067624;28;20197;-60
2023/08/15 11:38:49;;;;;;;5.72;3.00;;;24.40;99.90;;;;;;5058415;28;20216;-61
2023/08/15 11:41:17;;;;;;;7.55;3.42;;;24.30;99.90;;;;;;5059738;28;20217;-61
2023/08/15 11:43:44;;;;;;;8.00;3.90;;;24.00;99.90;;;;;;5066312;28;20282;-61
2023/08/15 11:46:12;;;;;;;10.02;3.60;;;23.80;99.90;;;;;;5054434;28;20205;-61
2023/08/15 11:48:43;;;;;;;6.18;3.50;;;23.60;99.90;;;;;;5064177;28;20228;-61
2023/08/15 11:51:11;;;;;;;6.85;3.45;;;23.40;99.90;;;;;;5057782;28;20232;-61
2023/08/15 11:53:49;;;;;;;5.60;3.78;;;23.30;99.90;;;;;;5053359;28;20232;-61
2023/08/15 11:56:16;;;;;;;10.32;3.80;;;23.20;99.90;;;;;;5067781;28;20221;-61
2023/08/15 11:58:44;;;;;;;8.20;3.42;;;23.20;99.90;;;;;;5065162;28;20218;-61
2023/08/15 12:01:14;;;;;;;4.07;3.13;;;23.20;99.90;;;;;;5062998;28;20645;-61
2023/08/15 12:03:42;;;;;;;8.75;3.30;;;23.30;99.90;;;;;;5069884;28;20204;-61
2023/08/15 12:06:11;;;;;;;9.75;3.70;;;23.20;99.90;;;;;;5070198;28;20626;-60
2023/08/15 12:08:43;;;;;;;6.03;3.20;;;23.30;99.90;;;;;;5064952;28;20309;-60
2023/08/15 12:11:13;;;;;;;3.55;3.25;;;23.30;99.90;;;;;;5064693;28;20197;-61
2023/08/15 12:13:41;;;;;;;3.67;3.15;;;23.40;99.90;;;;;;5069669;28;20228;-60
2023/08/15 12:16:10;;;;;;;7.65;3.80;;;23.40;99.90;;;;;;5058108;28;20201;-60
2023/08/15 12:18:39;;;;;;;7.53;3.35;;;23.40;99.90;;;;;;5069032;28;20704;-60
2023/08/15 12:21:07;;;;;;;9.75;3.60;;;23.50;99.90;;;;;;5058207;28;20225;-61
2023/08/15 12:23:40;;;;;;;7.75;3.33;;;23.50;99.90;;;;;;5060187;28;20197;-61
2023/08/15 12:26:08;;;;;;;5.85;3.53;;;23.50;99.90;;;;;;5057519;28;20209;-60
2023/08/15 12:28:36;;;;;;;5.40;3.42;;;23.50;99.90;;;;;;5069192;28;20227;-59
2023/08/15 12:31:04;;;;;;;5.97;3.35;;;23.50;99.90;;;;;;5063723;28;20262;-60
2023/08/15 12:33:33;;;;;;;3.88;3.38;;;23.60;99.90;;;;;;5061442;28;20197;-59
2023/08/15 12:36:14;;;;;;;8.10;4.25;;;23.60;99.90;;;;;;5070239;28;20300;-59
2023/08/15 12:38:43;;;;;;;5.30;3.53;;;23.60;99.90;;;;;;5060670;28;20301;-61
2023/08/15 12:41:13;;;;;;;6.80;3.88;;;23.50;99.90;;;;;;5063774;28;20592;-62
2023/08/15 12:43:41;;;;;;;6.13;3.80;;;23.50;99.90;;;;;;5068643;28;20680;-60
2023/08/15 12:46:10;;;;;;;6.35;3.90;;;23.50;99.90;;;;;;5057583;28;20202;-60
2023/08/15 12:48:38;;;;;;;5.25;4.43;;;23.50;99.90;;;;;;5068579;28;20260;-61
2023/08/15 12:51:06;;;;;;;12.05;5.07;;;23.50;99.90;;;;;;5063839;28;20200;-61
2023/08/15 12:53:33;;;;;;;7.40;4.13;;;23.50;99.90;;;;;;5060824;28;20619;-60